Time;durP1;ratioP1;P1;durP2;ratioP2;P2;SDS_P1;SDS_P2;PMS_P1;PMS_P2;Temp;Humidity;BMP_temperature;BMP_pressure;BME280_temperature;BME280_humidity;BME280_pressure;Samples;Min_cycle;Max_cycle;Signal;HPM_P1;HPM_P2
2022/08/02 00:01:51;;;;;;;;;0.00;0.00;34.90;99.90;;;;;;6230610;23;8843;-75
2022/08/02 00:04:33;;;;;;;;;0.00;0.00;34.80;99.90;;;;;;6238967;23;9492;-72
2022/08/02 00:07:04;;;;;;;;;0.00;0.00;34.80;99.90;;;;;;6240311;23;9929;-73
2022/08/02 00:09:36;;;;;;;;;0.00;0.00;34.90;99.90;;;;;;6236478;23;8800;-73
2022/08/02 00:12:07;;;;;;;;;0.20;0.00;34.80;99.90;;;;;;6233956;23;8829;-73
2022/08/02 00:14:41;;;;;;;;;0.00;0.00;34.80;99.90;;;;;;6232256;23;8827;-73
2022/08/02 00:17:13;;;;;;;;;1.20;0.40;34.70;99.90;;;;;;6236118;23;8911;-71
2022/08/02 00:19:44;;;;;;;;;0.00;0.00;34.70;99.90;;;;;;6212994;23;8793;-74
2022/08/02 00:22:15;;;;;;;;;0.00;0.00;34.60;99.90;;;;;;6236523;22;8796;-74
2022/08/02 00:24:45;;;;;;;;;1.00;1.00;34.40;99.90;;;;;;6237462;23;8804;-72
2022/08/02 00:27:16;;;;;;;;;0.00;0.00;34.30;99.90;;;;;;6240327;23;8831;-73
2022/08/02 00:29:45;;;;;;;;;0.00;0.00;34.30;99.90;;;;;;6233728;23;8946;-73
2022/08/02 00:32:23;;;;;;;;;0.00;0.00;34.30;99.90;;;;;;6233747;23;8816;-75
2022/08/02 00:34:52;;;;;;;;;0.00;0.00;34.30;99.90;;;;;;6235047;23;8823;-80
2022/08/02 00:37:23;;;;;;;;;0.00;0.00;34.30;99.90;;;;;;6238064;23;8839;-77
2022/08/02 00:40:00;;;;;;;;;0.00;0.00;34.20;99.90;;;;;;6234130;23;8784;-73
2022/08/02 00:42:31;;;;;;;;;0.00;0.00;34.20;99.90;;;;;;6235346;23;8805;-74
2022/08/02 00:45:00;;;;;;;;;0.20;0.20;34.30;99.90;;;;;;6235446;23;8793;-74
2022/08/02 00:47:30;;;;;;;;;0.00;0.00;34.20;99.90;;;;;;6235044;23;8781;-73
2022/08/02 00:50:00;;;;;;;;;1.40;0.20;34.10;99.90;;;;;;6232834;23;8828;-73
2022/08/02 00:52:31;;;;;;;;;0.20;0.00;34.10;99.90;;;;;;6233557;23;8815;-75
2022/08/02 00:55:03;;;;;;;;;0.00;0.00;34.00;99.90;;;;;;6234023;23;9307;-78
2022/08/02 00:57:33;;;;;;;;;0.00;0.00;34.00;99.90;;;;;;6231159;23;8834;-78
2022/08/02 01:00:05;;;;;;;;;0.00;0.00;33.90;99.90;;;;;;6233237;23;9507;-78
2022/08/02 01:02:35;;;;;;;;;0.80;0.80;33.90;99.90;;;;;;6234488;23;8819;-83
2022/08/02 01:05:08;;;;;;;;;0.00;0.00;33.90;99.90;;;;;;6237452;23;8803;-79
2022/08/02 01:07:39;;;;;;;;;1.00;0.00;33.80;99.90;;;;;;6238658;23;9544;-80
2022/08/02 01:10:10;;;;;;;;;0.60;0.60;33.70;99.90;;;;;;6238181;23;8811;-74
2022/08/02 01:12:43;;;;;;;;;0.20;0.20;33.70;99.90;;;;;;6231768;23;9485;-74
2022/08/02 01:15:16;;;;;;;;;0.00;0.00;33.70;99.90;;;;;;6235740;23;8809;-80
2022/08/02 01:17:45;;;;;;;;;0.00;0.00;33.60;99.90;;;;;;6231962;23;8840;-77
2022/08/02 01:20:37;;;;;;;;;0.00;0.00;33.50;99.90;;;;;;6233999;22;8804;-77
2022/08/02 01:23:45;;;;;;;;;0.00;0.00;33.50;99.90;;;;;;6212271;22;8791;-76
2022/08/02 01:26:39;;;;;;;;;0.00;0.00;33.50;99.90;;;;;;6268020;22;8763;-77
2022/08/02 01:29:30;;;;;;;;;0.40;0.40;33.50;99.90;;;;;;6213825;22;8825;-75
2022/08/02 01:32:18;;;;;;;;;1.00;1.00;33.50;99.90;;;;;;6237623;22;8876;-74
2022/08/02 01:34:55;;;;;;;;;0.20;0.20;33.30;99.90;;;;;;6215996;22;8803;-76
2022/08/02 01:37:37;;;;;;;;;0.80;0.00;33.20;99.90;;;;;;6271448;22;8783;-75
2022/08/02 01:40:16;;;;;;;;;1.00;1.00;33.10;99.90;;;;;;6241697;22;8803;-79
2022/08/02 01:42:52;;;;;;;;;1.00;0.00;33.20;99.90;;;;;;6243456;22;8783;-78
2022/08/02 01:45:26;;;;;;;;;0.60;0.00;33.10;99.90;;;;;;6269515;22;8790;-76
2022/08/02 01:48:05;;;;;;;;;0.00;0.00;33.10;99.90;;;;;;6240136;22;8941;-76
2022/08/02 01:50:38;;;;;;;;;0.00;0.00;33.00;99.90;;;;;;6269226;22;8791;-77
2022/08/02 01:53:13;;;;;;;;;0.00;0.00;32.90;99.90;;;;;;6242217;22;8803;-78
2022/08/02 01:55:49;;;;;;;;;0.00;0.00;32.80;99.90;;;;;;6241797;22;9900;-78
2022/08/02 01:58:30;;;;;;;;;0.00;0.00;32.80;99.90;;;;;;6272085;22;8764;-78
2022/08/02 02:01:13;;;;;;;;;1.20;1.20;32.70;99.90;;;;;;6267737;22;9534;-76
2022/08/02 02:03:50;;;;;;;;;0.00;0.00;32.80;99.90;;;;;;6267981;22;8819;-76
2022/08/02 02:06:23;;;;;;;;;1.00;1.00;32.80;99.90;;;;;;6246282;22;8771;-77
2022/08/02 02:08:58;;;;;;;;;0.20;0.20;32.80;99.90;;;;;;6243445;22;8794;-77
2022/08/02 02:11:28;;;;;;;;;0.20;0.00;32.80;99.90;;;;;;6239499;22;8775;-75
2022/08/02 02:14:22;;;;;;;;;1.00;1.00;32.80;99.90;;;;;;6250355;22;9447;-76
2022/08/02 02:16:55;;;;;;;;;1.00;1.00;32.60;99.90;;;;;;6236516;22;9209;-77
2022/08/02 02:19:26;;;;;;;;;0.60;0.60;32.50;99.90;;;;;;6212374;22;8807;-76
2022/08/02 02:21:58;;;;;;;;;0.00;0.00;32.50;99.90;;;;;;6241947;22;9578;-79
2022/08/02 02:24:34;;;;;;;;;0.80;0.80;32.50;99.90;;;;;;6239696;22;8830;-79
2022/08/02 02:27:13;;;;;;;;;0.00;0.00;32.60;99.90;;;;;;6239013;22;9388;-81
2022/08/02 02:30:04;;;;;;;;;1.00;1.00;32.60;99.90;;;;;;6239470;22;8815;-79
2022/08/02 02:32:48;;;;;;;;;0.00;0.00;32.60;99.90;;;;;;6213017;22;8974;-79
2022/08/02 02:35:22;;;;;;;;;0.00;0.00;32.40;99.90;;;;;;6243841;22;8791;-76
2022/08/02 02:38:11;;;;;;;;;0.00;0.00;32.30;99.90;;;;;;6240245;22;8823;-80
2022/08/02 02:41:11;;;;;;;;;2.20;0.00;32.50;99.90;;;;;;6239857;22;8811;-80
2022/08/02 02:44:02;;;;;;;;;1.00;1.00;32.50;99.90;;;;;;6219679;22;8791;-83
2022/08/02 02:46:37;;;;;;;;;0.20;0.20;32.50;99.90;;;;;;6241775;22;8806;-81
2022/08/02 02:49:11;;;;;;;;;0.00;0.00;32.60;99.90;;;;;;6243834;22;9455;-78
2022/08/02 02:51:44;;;;;;;;;0.00;0.00;32.60;99.90;;;;;;6215307;22;8795;-76
2022/08/02 02:54:18;;;;;;;;;1.00;0.00;32.60;99.90;;;;;;6271364;22;8953;-77
2022/08/02 02:57:05;;;;;;;;;0.00;0.00;32.60;99.90;;;;;;6239823;22;9117;-77
2022/08/02 02:59:39;;;;;;;;;0.00;0.00;32.70;99.90;;;;;;6245948;22;8806;-79
2022/08/02 03:02:23;;;;;;;;;0.20;0.20;32.60;99.90;;;;;;6239549;22;8807;-79
2022/08/02 03:05:02;;;;;;;;;0.20;0.20;32.60;99.90;;;;;;6267608;22;8790;-78
2022/08/02 03:07:35;;;;;;;;;1.80;1.00;32.60;99.90;;;;;;6240223;22;9538;-75
2022/08/02 03:10:12;;;;;;;;;1.00;1.00;32.60;99.90;;;;;;6270286;22;8799;-79
2022/08/02 03:12:42;;;;;;;;;0.40;0.00;32.50;99.90;;;;;;6267823;22;8799;-77
2022/08/02 03:15:14;;;;;;;;;1.00;0.00;32.40;99.90;;;;;;6268803;22;8837;-77
2022/08/02 03:17:46;;;;;;;;;0.00;0.00;32.30;99.90;;;;;;6268121;22;8829;-79
2022/08/02 03:20:19;;;;;;;;;0.00;0.00;32.30;99.90;;;;;;6269368;22;8806;-71
2022/08/02 03:22:49;;;;;;;;;1.40;0.00;32.20;99.90;;;;;;6267812;22;8809;-74
2022/08/02 03:25:20;;;;;;;;;0.00;0.00;32.20;99.90;;;;;;6242488;22;8799;-79
2022/08/02 03:27:50;;;;;;;;;0.80;0.80;32.10;99.90;;;;;;6270929;22;9644;-77
2022/08/02 03:30:23;;;;;;;;;0.60;0.60;32.10;99.90;;;;;;6243605;22;8779;-74
2022/08/02 03:32:53;;;;;;;;;0.00;0.00;32.00;99.90;;;;;;6241763;22;8809;-74
2022/08/02 03:35:26;;;;;;;;;0.00;0.00;31.90;99.90;;;;;;6241004;22;8802;-74
2022/08/02 03:38:03;;;;;;;;;0.00;0.00;31.80;99.90;;;;;;6270385;22;8794;-73
2022/08/02 03:40:38;;;;;;;;;1.00;1.00;31.80;99.90;;;;;;6241967;22;8787;-78
2022/08/02 03:43:10;;;;;;;;;0.00;0.00;31.70;99.90;;;;;;6244892;22;8795;-77
2022/08/02 03:45:47;;;;;;;;;0.20;0.20;31.60;99.90;;;;;;6245145;22;8790;-79
2022/08/02 03:48:18;;;;;;;;;0.00;0.00;31.70;99.90;;;;;;6279154;22;9364;-76
2022/08/02 03:51:02;;;;;;;;;1.00;1.00;31.60;99.90;;;;;;6271337;22;8775;-72
2022/08/02 03:53:33;;;;;;;;;1.80;1.00;31.50;99.90;;;;;;6268927;22;8799;-74
2022/08/02 03:56:13;;;;;;;;;2.80;1.60;31.40;99.90;;;;;;6236515;22;8822;-79
2022/08/02 03:58:43;;;;;;;;;2.60;0.20;31.30;99.90;;;;;;6239087;22;8791;-75
2022/08/02 04:01:17;;;;;;;;;1.20;1.20;31.20;99.90;;;;;;6240566;22;8825;-72
2022/08/02 04:03:48;;;;;;;;;0.60;0.60;31.20;99.90;;;;;;6237912;22;8779;-73
2022/08/02 04:06:18;;;;;;;;;1.00;1.00;31.20;99.90;;;;;;6236274;22;9597;-75
2022/08/02 04:08:56;;;;;;;;;1.00;1.00;31.20;99.90;;;;;;6240347;22;8803;-74
2022/08/02 04:11:31;;;;;;;;;1.00;1.00;31.10;99.90;;;;;;6265715;22;8805;-74
2022/08/02 04:14:07;;;;;;;;;0.40;0.40;31.00;99.90;;;;;;6266110;22;8798;-76
2022/08/02 04:17:00;;;;;;;;;1.00;1.00;30.90;99.90;;;;;;6265718;22;8775;-76
2022/08/02 04:19:36;;;;;;;;;2.40;2.00;30.90;99.90;;;;;;6270023;22;8799;-79
2022/08/02 04:22:17;;;;;;;;;1.80;1.80;30.70;99.90;;;;;;6232748;22;8821;-74
2022/08/02 04:24:53;;;;;;;;;1.80;1.80;30.70;99.90;;;;;;6233519;23;8789;-73
2022/08/02 04:27:28;;;;;;;;;3.20;2.20;30.70;99.90;;;;;;6240990;23;8796;-81
2022/08/02 04:30:21;;;;;;;;;2.40;1.20;30.70;99.90;;;;;;6240711;23;8815;-80
2022/08/02 04:32:52;;;;;;;;;2.00;1.40;30.60;99.90;;;;;;6234618;23;8858;-81
2022/08/02 04:35:24;;;;;;;;;3.20;1.60;30.60;99.90;;;;;;6240750;23;8823;-74
2022/08/02 04:37:56;;;;;;;;;2.40;2.40;30.50;99.90;;;;;;6233770;23;8813;-74
2022/08/02 04:40:39;;;;;;;;;2.00;2.00;30.50;99.90;;;;;;6233567;23;8823;-75
2022/08/02 04:43:12;;;;;;;;;2.20;2.00;30.40;99.90;;;;;;6233003;23;8832;-73
2022/08/02 04:45:44;;;;;;;;;0.00;0.00;30.40;99.90;;;;;;6234819;23;9697;-74
2022/08/02 04:48:15;;;;;;;;;1.00;0.00;30.30;99.90;;;;;;6233257;23;8832;-74
2022/08/02 04:50:46;;;;;;;;;2.00;2.00;30.30;99.90;;;;;;6232873;23;8804;-73
2022/08/02 04:53:17;;;;;;;;;2.40;2.40;30.30;99.90;;;;;;6232289;23;8808;-74
2022/08/02 04:55:50;;;;;;;;;2.80;2.80;30.30;99.90;;;;;;6234563;23;8816;-78
2022/08/02 04:58:20;;;;;;;;;3.00;3.00;30.20;99.90;;;;;;6238796;23;8780;-80
2022/08/02 05:01:08;;;;;;;;;2.40;1.00;30.20;99.90;;;;;;6235274;23;8808;-74
2022/08/02 05:03:41;;;;;;;;;2.20;2.20;30.10;99.90;;;;;;6233324;23;8777;-74
2022/08/02 05:06:20;;;;;;;;;4.00;2.80;30.10;99.90;;;;;;6236587;23;8811;-75
2022/08/02 05:08:50;;;;;;;;;2.80;2.80;30.10;99.90;;;;;;6234954;23;9536;-74
2022/08/02 05:11:21;;;;;;;;;2.60;2.60;30.00;99.90;;;;;;6231418;23;8828;-74
2022/08/02 05:14:09;;;;;;;;;2.20;2.20;29.90;99.90;;;;;;6233375;23;8815;-73
2022/08/02 05:16:39;;;;;;;;;3.00;3.00;29.90;99.90;;;;;;6231510;22;9553;-80
2022/08/02 05:19:11;;;;;;;;;3.60;1.00;29.90;99.90;;;;;;6238419;23;8800;-80
2022/08/02 05:21:44;;;;;;;;;5.20;2.20;29.90;99.90;;;;;;6206591;23;8820;-79
2022/08/02 05:24:15;;;;;;;;;2.40;2.40;29.90;99.90;;;;;;6211069;23;8816;-79
2022/08/02 05:26:46;;;;;;;;;4.00;4.00;29.80;99.90;;;;;;6233082;23;8801;-80
2022/08/02 05:29:22;;;;;;;;;3.40;3.00;29.80;99.90;;;;;;6235311;23;8805;-81
2022/08/02 05:31:53;;;;;;;;;1.00;1.00;29.80;99.90;;;;;;6240375;23;8802;-75
2022/08/02 05:34:24;;;;;;;;;3.00;3.00;29.70;99.90;;;;;;6235647;23;8785;-74
2022/08/02 05:36:54;;;;;;;;;4.80;2.20;29.60;99.90;;;;;;6241223;23;8797;-79
2022/08/02 05:39:24;;;;;;;;;3.80;3.20;29.70;99.90;;;;;;6242176;23;8805;-80
2022/08/02 05:42:00;;;;;;;;;3.00;3.00;29.60;99.90;;;;;;6236636;23;8801;-79
2022/08/02 05:44:31;;;;;;;;;3.60;3.00;29.60;99.90;;;;;;6241412;23;8788;-81
2022/08/02 05:47:01;;;;;;;;;3.20;3.20;29.50;99.90;;;;;;6236418;23;8804;-74
2022/08/02 05:49:32;;;;;;;;;3.00;3.00;29.50;99.90;;;;;;6236086;23;8788;-73
2022/08/02 05:52:10;;;;;;;;;4.00;4.00;29.40;99.90;;;;;;6207571;23;8824;-74
2022/08/02 05:54:59;;;;;;;;;4.00;4.00;29.30;99.90;;;;;;6233336;23;8929;-74
2022/08/02 05:57:52;;;;;;;;;2.00;2.00;29.40;99.90;;;;;;6240612;23;8796;-78
2022/08/02 06:00:22;;;;;;;;;3.80;3.20;29.40;99.90;;;;;;6237610;23;8800;-74
2022/08/02 06:03:35;;;;;;;;;2.20;2.20;29.30;99.90;;;;;;6232621;23;8839;-73
2022/08/02 06:06:13;;;;;;;;;2.80;2.20;29.30;99.90;;;;;;6190436;23;9818;-75
2022/08/02 06:08:52;;;;;;;;;2.40;2.20;29.20;99.90;;;;;;6237483;23;8800;-74
2022/08/02 06:11:30;;;;;;;;;3.40;3.40;29.30;99.90;;;;;;6237362;23;9453;-82
2022/08/02 06:14:04;;;;;;;;;3.00;3.00;29.20;99.90;;;;;;6238429;23;9560;-78
2022/08/02 06:16:37;;;;;;;;;5.80;4.80;29.10;99.90;;;;;;6241252;23;8827;-79
2022/08/02 06:19:13;;;;;;;;;4.40;3.20;29.10;99.90;;;;;;6244808;23;8777;-79
2022/08/02 06:21:46;;;;;;;;;4.20;3.20;28.90;99.90;;;;;;6264334;22;9932;-74
2022/08/02 06:24:36;;;;;;;;;3.20;2.00;29.00;99.90;;;;;;6223929;22;8803;-74
2022/08/02 06:27:07;;;;;;;;;5.00;2.40;28.90;99.90;;;;;;6244618;22;9839;-74
2022/08/02 06:29:40;;;;;;;;;3.00;3.00;28.90;99.90;;;;;;6267652;22;8806;-74
2022/08/02 06:32:10;;;;;;;;;3.60;2.80;28.90;99.90;;;;;;6238010;22;8827;-80
2022/08/02 06:34:42;;;;;;;;;3.00;3.00;28.60;99.90;;;;;;6240194;22;8815;-78
2022/08/02 06:37:36;;;;;;;;;6.80;3.80;28.70;99.90;;;;;;6243873;22;8961;-78
2022/08/02 06:40:27;;;;;;;;;3.60;3.40;28.70;99.90;;;;;;6272580;22;8787;-74
2022/08/02 06:43:47;;;;;;;;;5.00;3.80;28.70;99.90;;;;;;6216363;22;8803;-74
2022/08/02 06:46:18;;;;;;;;;4.00;2.20;28.60;99.90;;;;;;6245103;22;8819;-79
2022/08/02 06:49:12;;;;;;;;;2.60;2.60;28.70;99.90;;;;;;6220407;22;9395;-80
2022/08/02 06:51:45;;;;;;;;;3.00;3.00;28.60;99.90;;;;;;6216268;22;8857;-74
2022/08/02 06:54:20;;;;;;;;;2.80;2.60;28.50;99.90;;;;;;6269065;22;8803;-74
2022/08/02 06:56:50;;;;;;;;;2.20;2.20;28.50;99.90;;;;;;6266960;22;8811;-76
2022/08/02 06:59:21;;;;;;;;;4.00;3.00;28.50;99.90;;;;;;6213509;22;8806;-74
2022/08/02 07:01:53;;;;;;;;;3.00;3.00;28.50;99.90;;;;;;6265295;22;8802;-73
2022/08/02 07:04:27;;;;;;;;;3.00;3.00;28.50;99.90;;;;;;6242489;22;9554;-75
2022/08/02 07:06:57;;;;;;;;;4.00;4.00;28.30;99.90;;;;;;6240195;22;8839;-73
2022/08/02 07:09:28;;;;;;;;;3.00;3.00;28.40;99.90;;;;;;6268471;22;8817;-74
2022/08/02 07:12:12;;;;;;;;;1.60;1.60;28.30;99.90;;;;;;6240192;22;8822;-74
2022/08/02 07:14:42;;;;;;;;;0.00;0.00;28.20;99.90;;;;;;6266624;22;8795;-75
2022/08/02 07:17:13;;;;;;;;;4.40;4.00;28.20;99.90;;;;;;6216584;22;9616;-80
2022/08/02 07:19:45;;;;;;;;;5.00;3.40;28.20;99.90;;;;;;6269401;22;8787;-79
2022/08/02 07:22:21;;;;;;;;;3.00;3.00;28.10;99.90;;;;;;6266645;22;8803;-75
2022/08/02 07:24:53;;;;;;;;;3.00;3.00;28.20;99.90;;;;;;6267424;22;8803;-74
2022/08/02 07:27:23;;;;;;;;;4.00;2.80;28.20;99.90;;;;;;6216408;22;8827;-80
2022/08/02 07:29:54;;;;;;;;;5.00;3.00;28.20;99.90;;;;;;6268507;22;8799;-78
2022/08/02 07:32:29;;;;;;;;;3.40;3.00;28.10;99.90;;;;;;6270292;22;8827;-77
2022/08/02 07:35:04;;;;;;;;;2.60;2.60;28.00;99.90;;;;;;6217240;22;8844;-75
2022/08/02 07:37:44;;;;;;;;;3.00;3.00;27.90;99.90;;;;;;6267286;22;8799;-74
2022/08/02 07:40:29;;;;;;;;;5.00;2.60;27.90;99.90;;;;;;6266709;22;9298;-75
2022/08/02 07:43:00;;;;;;;;;2.20;1.80;27.90;99.90;;;;;;6237273;22;8850;-74
2022/08/02 07:45:33;;;;;;;;;2.00;2.00;27.80;99.90;;;;;;6236373;22;9550;-74
2022/08/02 07:48:26;;;;;;;;;2.00;2.00;27.90;99.90;;;;;;6217105;22;8819;-74
2022/08/02 07:50:57;;;;;;;;;4.40;3.40;27.80;99.90;;;;;;6265981;22;9479;-79
2022/08/02 07:53:27;;;;;;;;;3.60;3.60;27.80;99.90;;;;;;6270544;22;8810;-79
2022/08/02 07:56:17;;;;;;;;;3.00;3.00;27.80;99.90;;;;;;6270553;22;8787;-80
2022/08/02 07:58:48;;;;;;;;;2.20;2.20;27.70;99.90;;;;;;6237993;22;8833;-80
2022/08/02 08:01:21;;;;;;;;;2.00;2.00;27.50;99.90;;;;;;6240746;22;8853;-75
2022/08/02 08:03:52;;;;;;;;;2.00;2.00;27.60;99.90;;;;;;6261152;22;8807;-74
2022/08/02 08:06:22;;;;;;;;;2.60;2.60;27.50;99.90;;;;;;6266527;22;9472;-77
2022/08/02 08:08:58;;;;;;;;;4.80;3.00;27.60;99.90;;;;;;6267908;22;8810;-79
2022/08/02 08:11:28;;;;;;;;;4.00;2.80;27.60;99.90;;;;;;6239801;22;9558;-75
2022/08/02 08:13:58;;;;;;;;;3.20;3.20;27.60;99.90;;;;;;6234555;22;8842;-74
2022/08/02 08:16:31;;;;;;;;;4.00;4.00;27.50;99.90;;;;;;6212186;22;8858;-74
2022/08/02 08:19:03;;;;;;;;;1.80;1.80;27.50;99.90;;;;;;6210893;22;8834;-74
2022/08/02 08:21:34;;;;;;;;;3.20;2.00;27.50;99.90;;;;;;6235219;22;8799;-74
2022/08/02 08:24:06;;;;;;;;;5.20;3.20;27.40;99.90;;;;;;6264587;22;8794;-74
2022/08/02 08:26:38;;;;;;;;;0.00;0.00;27.30;99.90;;;;;;6266090;22;8779;-77
2022/08/02 08:29:11;;;;;;;;;5.80;3.00;27.30;99.90;;;;;;6238633;22;8877;-78
2022/08/02 08:31:42;;;;;;;;;3.20;2.40;27.30;99.90;;;;;;6265647;22;9554;-74
2022/08/02 08:34:16;;;;;;;;;2.00;2.00;27.30;99.90;;;;;;6267767;22;8829;-73
2022/08/02 08:36:49;;;;;;;;;1.60;1.60;27.40;99.90;;;;;;6263746;22;8810;-77
2022/08/02 08:39:20;;;;;;;;;2.00;2.00;27.40;99.90;;;;;;6267712;22;8952;-77
2022/08/02 08:41:50;;;;;;;;;1.80;1.80;27.40;99.90;;;;;;6263432;22;8798;-78
2022/08/02 08:44:22;;;;;;;;;2.00;2.00;27.40;99.90;;;;;;6264108;22;8825;-78
2022/08/02 08:46:55;;;;;;;;;2.00;2.00;27.40;99.90;;;;;;6264264;22;8799;-74
2022/08/02 08:49:32;;;;;;;;;1.40;1.40;27.10;99.90;;;;;;6266673;22;9241;-73
2022/08/02 08:52:06;;;;;;;;;0.00;0.00;27.10;99.90;;;;;;6263761;22;8818;-73
2022/08/02 08:54:41;;;;;;;;;3.00;1.80;27.20;99.90;;;;;;6240548;22;8819;-74
2022/08/02 08:57:19;;;;;;;;;2.00;2.00;27.00;99.90;;;;;;6267764;22;8941;-77
2022/08/02 08:59:52;;;;;;;;;1.00;1.00;27.10;99.90;;;;;;6237119;22;9410;-79
2022/08/02 09:02:23;;;;;;;;;3.00;3.00;27.10;99.90;;;;;;6267939;22;8810;-78
2022/08/02 09:04:59;;;;;;;;;3.00;3.00;27.10;99.90;;;;;;6235933;22;8810;-77
2022/08/02 09:07:30;;;;;;;;;3.00;3.00;27.00;99.90;;;;;;6213636;22;8831;-78
2022/08/02 09:10:32;;;;;;;;;3.00;1.60;27.10;99.90;;;;;;6265061;22;8814;-77
2022/08/02 09:13:28;;;;;;;;;1.00;1.00;27.10;99.90;;;;;;6235431;22;8849;-78
2022/08/02 09:16:37;;;;;;;;;2.00;2.00;27.10;99.90;;;;;;6264954;22;8809;-74
2022/08/02 09:19:18;;;;;;;;;2.00;2.00;27.00;99.90;;;;;;6268672;22;8787;-74
2022/08/02 09:22:13;;;;;;;;;2.00;2.00;26.90;99.90;;;;;;6211134;22;8962;-74
2022/08/02 09:24:50;;;;;;;;;2.25;2.25;26.90;99.90;;;;;;6217196;22;8807;-73
2022/08/02 09:27:22;;;;;;;;;4.00;2.00;26.80;99.90;;;;;;6237393;22;8834;-79
2022/08/02 09:29:54;;;;;;;;;2.25;2.25;26.80;99.90;;;;;;6235887;22;8857;-77
2022/08/02 09:32:47;;;;;;;;;2.00;2.00;26.80;99.90;;;;;;6267395;22;9719;-78
2022/08/02 09:35:42;;;;;;;;;1.80;1.80;26.90;99.90;;;;;;6242050;22;8795;-78
2022/08/02 09:38:33;;;;;;;;;1.60;1.60;26.80;99.90;;;;;;6267179;22;8814;-79
2022/08/02 09:41:07;;;;;;;;;2.00;2.00;26.90;99.90;;;;;;6263871;22;8784;-75
2022/08/02 09:43:41;;;;;;;;;3.00;3.00;26.70;99.90;;;;;;6241291;22;8803;-74
2022/08/02 09:46:39;;;;;;;;;3.00;3.00;26.70;99.90;;;;;;6264418;22;8945;-79
2022/08/02 09:49:21;;;;;;;;;1.60;1.60;26.70;99.90;;;;;;6240682;22;8805;-78
2022/08/02 09:51:56;;;;;;;;;2.80;2.80;26.70;99.90;;;;;;6268018;22;8807;-77
2022/08/02 09:54:28;;;;;;;;;2.00;2.00;26.60;99.90;;;;;;6243164;22;8810;-79
2022/08/02 09:57:00;;;;;;;;;1.40;1.40;26.70;99.90;;;;;;6238003;22;8814;-78
2022/08/02 09:59:31;;;;;;;;;3.20;3.20;26.60;99.90;;;;;;6268091;22;8799;-78
2022/08/02 10:02:08;;;;;;;;;3.00;3.00;26.60;99.90;;;;;;6267407;22;9780;-77
2022/08/02 10:04:45;;;;;;;;;2.20;2.20;26.50;99.90;;;;;;6236394;22;8837;-77
2022/08/02 10:07:23;;;;;;;;;3.40;2.80;26.50;99.90;;;;;;6269674;22;9569;-73
2022/08/02 10:09:56;;;;;;;;;2.25;2.25;26.30;99.90;;;;;;6267223;22;8795;-74
2022/08/02 10:12:27;;;;;;;;;2.50;2.50;26.50;99.90;;;;;;6271157;22;8833;-74
2022/08/02 10:14:59;;;;;;;;;2.50;1.75;26.50;99.90;;;;;;6236844;22;8787;-75
2022/08/02 10:17:30;;;;;;;;;2.00;2.00;26.50;99.90;;;;;;6244827;22;9549;-74
2022/08/02 10:20:00;;;;;;;;;3.25;2.50;26.40;99.90;;;;;;6262302;22;8799;-73
2022/08/02 10:22:35;;;;;;;;;2.00;2.00;26.40;99.90;;;;;;6240157;22;9523;-74
2022/08/02 10:25:07;;;;;;;;;2.75;2.75;26.40;99.90;;;;;;6239361;22;8814;-77
2022/08/02 10:27:38;;;;;;;;;4.50;3.25;26.40;99.90;;;;;;6240501;22;8857;-79
2022/08/02 10:30:30;;;;;;;;;3.00;3.00;26.30;99.90;;;;;;6269736;22;8834;-74
2022/08/02 10:33:02;;;;;;;;;2.25;2.00;26.20;99.90;;;;;;6235760;22;9191;-74
2022/08/02 10:35:38;;;;;;;;;1.25;1.25;26.30;99.90;;;;;;6265401;22;8799;-73
2022/08/02 10:38:11;;;;;;;;;2.25;2.25;26.30;99.90;;;;;;6238298;22;8838;-75
2022/08/02 10:40:46;;;;;;;;;2.00;2.00;26.30;99.90;;;;;;6267619;22;8779;-73
2022/08/02 10:43:41;;;;;;;;;3.75;3.75;26.30;99.90;;;;;;6238247;22;8824;-75
2022/08/02 10:46:25;;;;;;;;;3.00;3.00;26.20;99.90;;;;;;6230558;22;9114;-73
2022/08/02 10:49:07;;;;;;;;;3.00;3.00;26.30;99.90;;;;;;6239448;22;8811;-75
2022/08/02 10:52:04;;;;;;;;;2.50;2.50;26.20;99.90;;;;;;6238047;22;9570;-78
2022/08/02 10:54:40;;;;;;;;;2.00;2.00;26.30;99.90;;;;;;6243071;22;8845;-77
2022/08/02 10:57:22;;;;;;;;;3.50;3.50;26.20;99.90;;;;;;6271618;22;8803;-78
2022/08/02 11:00:04;;;;;;;;;1.75;1.75;26.20;99.90;;;;;;6240912;22;9546;-79
2022/08/02 11:02:46;;;;;;;;;3.00;3.00;26.20;99.90;;;;;;6268705;22;9147;-78
2022/08/02 11:05:32;;;;;;;;;2.00;2.00;26.10;99.90;;;;;;6236455;22;9546;-75
2022/08/02 11:08:23;;;;;;;;;3.00;3.00;26.10;99.90;;;;;;6215904;22;8857;-74
2022/08/02 11:10:59;;;;;;;;;2.00;2.00;26.10;99.90;;;;;;6267362;22;8795;-77
2022/08/02 11:13:30;;;;;;;;;1.60;1.60;26.00;99.90;;;;;;6267568;22;8783;-80
2022/08/02 11:16:05;;;;;;;;;2.25;2.25;26.00;99.90;;;;;;6237555;22;8831;-74
2022/08/02 11:18:51;;;;;;;;;3.75;2.00;26.00;99.90;;;;;;6264297;22;8826;-74
2022/08/02 11:21:34;;;;;;;;;6.75;2.75;26.00;99.90;;;;;;6266910;22;8837;-74
2022/08/02 11:24:27;;;;;;;;;2.00;2.00;25.80;99.90;;;;;;6238518;22;8811;-75
2022/08/02 11:26:58;;;;;;;;;3.00;3.00;26.00;99.90;;;;;;6267356;22;9483;-75
2022/08/02 11:29:42;;;;;;;;;0.00;0.00;26.00;99.90;;;;;;6268817;22;8806;-75
2022/08/02 11:32:23;;;;;;;;;2.00;2.00;25.90;99.90;;;;;;6269813;22;8830;-78
2022/08/02 11:35:02;;;;;;;;;1.00;1.00;25.90;99.90;;;;;;6263186;22;8799;-73
2022/08/02 11:37:37;;;;;;;;;2.50;2.00;25.90;99.90;;;;;;6266585;22;9502;-74
2022/08/02 11:40:14;;;;;;;;;2.75;1.50;25.90;99.90;;;;;;6241556;22;8880;-75
2022/08/02 11:42:49;;;;;;;;;3.25;3.25;25.90;99.90;;;;;;6266744;22;8950;-73
2022/08/02 11:45:27;;;;;;;;;3.25;3.00;25.90;99.90;;;;;;6241899;22;8795;-74
2022/08/02 11:47:57;;;;;;;;;2.25;2.25;25.90;99.90;;;;;;6264545;22;8783;-73
2022/08/02 11:50:30;;;;;;;;;2.25;2.25;25.80;99.90;;;;;;6236000;22;8799;-74
2022/08/02 11:53:00;;;;;;;;;3.00;3.00;25.90;99.90;;;;;;6237960;22;8830;-75
2022/08/02 11:55:33;;;;;;;;;3.75;2.75;25.80;99.90;;;;;;6263187;22;8803;-74
2022/08/02 11:58:06;;;;;;;;;2.00;2.00;25.70;99.90;;;;;;6265408;22;8806;-73
2022/08/02 12:00:37;;;;;;;;;2.25;2.25;25.70;99.90;;;;;;6266081;22;8879;-73
2022/08/02 12:03:12;;;;;;;;;3.25;3.00;25.70;99.90;;;;;;6264804;22;8842;-75
2022/08/02 12:05:50;;;;;;;;;2.00;2.00;25.80;99.90;;;;;;6236826;22;8787;-79
2022/08/02 12:08:37;;;;;;;;;3.00;3.00;25.70;99.90;;;;;;6269599;22;8798;-77
2022/08/02 12:11:07;;;;;;;;;2.50;2.50;25.70;99.90;;;;;;6218639;22;8913;-78
2022/08/02 12:13:46;;;;;;;;;1.75;1.75;25.70;99.90;;;;;;6215680;22;8798;-79
2022/08/02 12:19:26;;;;;;;;;5.00;4.00;25.70;99.90;;;;;;6267942;22;8814;-74
2022/08/02 12:22:39;;;;;;;;;3.00;3.00;25.70;99.90;;;;;;6264868;22;8830;-78
2022/08/02 12:25:23;;;;;;;;;2.25;1.00;25.70;99.90;;;;;;6261094;22;8791;-78
2022/08/02 12:28:21;;;;;;;;;4.50;3.00;25.70;99.90;;;;;;6243057;22;8799;-77
2022/08/02 12:30:59;;;;;;;;;2.00;2.00;25.80;99.90;;;;;;6267265;22;8813;-77
2022/08/02 12:33:44;;;;;;;;;2.50;2.50;25.80;99.90;;;;;;6268244;22;10302;-78
2022/08/02 12:36:19;;;;;;;;;2.00;2.00;25.70;99.90;;;;;;6214170;22;8861;-75
2022/08/02 12:39:00;;;;;;;;;3.00;3.00;25.80;99.90;;;;;;6267033;22;8872;-75
2022/08/02 12:41:30;;;;;;;;;2.25;2.25;25.90;99.90;;;;;;6241577;22;9586;-75
2022/08/02 12:44:01;;;;;;;;;2.75;2.75;25.90;99.90;;;;;;6266224;22;8819;-73
2022/08/02 12:46:33;;;;;;;;;4.00;2.00;26.00;99.90;;;;;;6266136;22;8845;-78
2022/08/02 12:49:17;;;;;;;;;4.00;4.00;26.00;99.90;;;;;;6245315;22;8791;-78
2022/08/02 12:51:49;;;;;;;;;4.25;2.75;26.10;99.90;;;;;;6240084;22;8817;-77
2022/08/02 12:54:38;;;;;;;;;3.00;3.00;26.10;99.90;;;;;;6267715;22;8803;-77
2022/08/02 12:57:13;;;;;;;;;5.25;2.25;26.10;99.90;;;;;;6268376;22;9490;-74
2022/08/02 12:59:50;;;;;;;;;2.25;2.25;26.10;99.90;;;;;;6265283;22;8850;-73
2022/08/02 13:02:20;;;;;;;;;2.75;2.75;26.20;99.90;;;;;;6262553;22;8810;-78
2022/08/02 13:04:53;;;;;;;;;3.00;1.75;26.30;99.90;;;;;;6211191;22;8823;-78
2022/08/02 13:07:25;;;;;;;;;3.25;3.25;26.30;99.90;;;;;;6268882;22;8857;-77
2022/08/02 13:09:55;;;;;;;;;2.00;2.00;26.40;99.90;;;;;;6264821;22;8811;-77
2022/08/02 13:12:33;;;;;;;;;3.50;3.50;26.30;99.90;;;;;;6217934;22;8813;-74
2022/08/02 13:15:09;;;;;;;;;3.00;3.00;26.40;99.90;;;;;;6263860;22;8802;-74
2022/08/02 13:18:00;;;;;;;;;3.00;2.50;26.40;99.90;;;;;;6264775;22;9277;-75
2022/08/02 13:20:31;;;;;;;;;2.00;2.00;26.50;99.90;;;;;;6239188;22;8791;-78
2022/08/02 13:23:02;;;;;;;;;2.00;2.00;26.50;99.90;;;;;;6266441;22;8823;-78
2022/08/02 13:25:34;;;;;;;;;2.75;2.75;26.60;99.90;;;;;;6213111;22;8818;-76
2022/08/02 13:28:07;;;;;;;;;0.25;0.25;26.70;99.90;;;;;;6237370;22;8807;-74
2022/08/02 13:30:37;;;;;;;;;0.75;0.75;26.70;99.90;;;;;;6267395;22;8810;-77
2022/08/02 13:33:07;;;;;;;;;3.00;2.00;26.70;99.90;;;;;;6235141;22;8811;-78
2022/08/02 13:35:38;;;;;;;;;3.00;2.25;26.70;99.90;;;;;;6265078;22;8795;-74
2022/08/02 13:38:08;;;;;;;;;3.75;2.25;26.70;99.90;;;;;;6209726;22;8807;-75
2022/08/02 13:41:07;;;;;;;;;0.00;0.00;26.80;99.90;;;;;;6263470;22;8885;-73
2022/08/02 13:43:33;;;;;;;;;2.75;2.75;26.90;99.90;;;;;;6264616;22;8795;-75
2022/08/02 13:46:23;;;;;;;;;1.60;1.60;27.00;99.90;;;;;;6235396;22;8803;-75
2022/08/02 13:49:01;;;;;;;;;3.50;3.50;27.00;99.90;;;;;;6264268;22;8798;-75
2022/08/02 13:51:33;;;;;;;;;3.00;3.00;27.00;99.90;;;;;;6211914;22;8803;-75